createdAt,value
2022-12-13T00:00:21.874Z,0.30
2022-12-13T00:01:25.609Z,0.20
2022-12-13T00:02:27.858Z,0.20
2022-12-13T00:03:30.230Z,0.20
2022-12-13T00:04:32.541Z,0.20
2022-12-13T00:05:35.401Z,0.20
2022-12-13T00:06:37.762Z,0.20
2022-12-13T00:07:40.275Z,0.20
2022-12-13T00:08:42.506Z,0.20
2022-12-13T00:09:44.752Z,0.20
2022-12-13T00:10:47.057Z,0.20
2022-12-13T00:11:50.277Z,0.20
2022-12-13T00:12:52.598Z,0.10
2022-12-13T00:13:55.289Z,0.10
2022-12-13T00:14:57.749Z,0.10
2022-12-13T00:16:02.500Z,0.10
2022-12-13T00:17:04.834Z,0.10
2022-12-13T00:18:07.113Z,0.10
2022-12-13T00:19:09.328Z,0.10
2022-12-13T00:20:12.649Z,0.00
2022-12-13T00:21:17.915Z,0.00
2022-12-13T00:22:20.285Z,0.10
2022-12-13T00:23:23.211Z,0.00
2022-12-13T00:24:25.494Z,0.00
2022-12-13T00:25:27.808Z,0.00
2022-12-13T00:26:32.673Z,0.00
2022-12-13T00:27:35.020Z,0.00
2022-12-13T00:28:37.841Z,0.00
2022-12-13T00:29:40.168Z,0.10
2022-12-13T00:30:42.857Z,0.10
2022-12-13T00:31:59.489Z,0.10
2022-12-13T00:33:03.095Z,0.10
2022-12-13T00:34:05.366Z,0.00
2022-12-13T00:35:07.859Z,0.10
2022-12-13T00:36:10.346Z,0.00
2022-12-13T00:37:12.754Z,0.00
2022-12-13T00:38:15.049Z,0.00
2022-12-13T00:39:19.218Z,0.00
2022-12-13T00:40:21.594Z,0.00
2022-12-13T00:41:23.803Z,0.00
2022-12-13T00:42:26.183Z,0.00
2022-12-13T00:43:28.852Z,0.00
2022-12-13T00:44:31.288Z,0.00
2022-12-13T00:45:33.729Z,0.00
2022-12-13T00:46:36.025Z,0.00
2022-12-13T00:47:38.357Z,0.00
2022-12-13T00:48:40.722Z,0.00
2022-12-13T00:49:42.958Z,0.00
2022-12-13T00:50:45.214Z,0.10
2022-12-13T00:51:49.584Z,0.10
2022-12-13T00:52:51.976Z,0.10
2022-12-13T00:53:54.520Z,0.10
2022-12-13T00:54:56.803Z,0.00
2022-12-13T00:55:59.009Z,0.00
2022-12-13T00:57:01.241Z,0.00
2022-12-13T00:58:03.560Z,0.00
2022-12-13T00:59:05.953Z,0.00
2022-12-13T01:00:08.937Z,0.00
2022-12-13T01:01:13.882Z,0.00
2022-12-13T01:02:16.559Z,0.00
2022-12-13T01:03:25.449Z,0.00
2022-12-13T01:04:27.753Z,0.00
2022-12-13T01:06:04.075Z,0.00
2022-12-13T01:06:52.228Z,0.00
2022-12-13T01:07:54.452Z,0.00
2022-12-13T01:08:56.966Z,0.00
2022-12-13T01:10:00.548Z,0.00
2022-12-13T01:11:04.193Z,0.00
2022-12-13T01:12:07.109Z,0.00
2022-12-13T01:13:09.393Z,0.00
2022-12-13T01:14:11.791Z,0.00
2022-12-13T01:15:14.237Z,0.00
2022-12-13T01:16:18.685Z,0.00
2022-12-13T01:17:21.203Z,0.00
2022-12-13T01:18:23.560Z,0.00
2022-12-13T01:19:27.854Z,0.00
2022-12-13T01:20:30.112Z,0.00
2022-12-13T01:21:32.339Z,0.00
2022-12-13T01:22:34.526Z,0.00
2022-12-13T01:23:36.795Z,0.00
2022-12-13T01:24:39.075Z,0.00
2022-12-13T01:25:41.268Z,0.00
2022-12-13T01:26:43.580Z,0.00
2022-12-13T01:27:45.849Z,0.00
2022-12-13T01:28:48.964Z,0.00
2022-12-13T01:29:51.173Z,0.00
2022-12-13T01:30:58.232Z,0.00
2022-12-13T01:32:00.504Z,0.00
2022-12-13T01:33:02.722Z,0.00
2022-12-13T01:34:19.268Z,0.00
2022-12-13T01:35:21.473Z,0.00
2022-12-13T01:36:26.911Z,0.00
2022-12-13T01:37:30.326Z,0.00
2022-12-13T01:38:37.663Z,0.00
2022-12-13T01:39:39.985Z,0.00
2022-12-13T01:40:57.759Z,0.00
2022-12-13T01:42:04.472Z,0.10
2022-12-13T01:43:14.504Z,0.10
2022-12-13T01:44:54.085Z,0.00
2022-12-13T01:45:56.454Z,0.10
2022-12-13T01:46:58.673Z,0.00
2022-12-13T01:48:07.628Z,0.00
2022-12-13T01:49:19.755Z,0.00
2022-12-13T01:50:29.146Z,0.00
2022-12-13T01:51:44.955Z,0.00
2022-12-13T01:52:48.871Z,0.00
2022-12-13T01:53:52.972Z,0.00
2022-12-13T01:54:56.878Z,0.00
2022-12-13T01:56:23.203Z,0.00
2022-12-13T01:57:26.441Z,0.00
2022-12-13T01:58:29.136Z,0.00
2022-12-13T01:59:32.417Z,0.00
2022-12-13T02:00:36.228Z,0.00
2022-12-13T02:01:43.312Z,0.00
2022-12-13T02:02:46.953Z,0.00
2022-12-13T02:03:49.207Z,0.00
2022-12-13T02:05:09.293Z,0.00
2022-12-13T02:06:17.197Z,0.00
2022-12-13T02:07:25.116Z,0.00
2022-12-13T02:08:27.669Z,0.00
2022-12-13T02:09:30.172Z,0.00
2022-12-13T02:10:32.826Z,0.00
2022-12-13T02:11:41.701Z,0.00
2022-12-13T02:12:44.128Z,0.00
2022-12-13T02:13:46.361Z,0.00
2022-12-13T02:14:48.997Z,0.00
2022-12-13T02:16:08.794Z,0.00
2022-12-13T02:17:24.468Z,0.00
2022-12-13T02:18:53.063Z,0.00
2022-12-13T02:20:34.643Z,0.00
2022-12-13T02:22:06.093Z,0.00
2022-12-13T02:23:33.135Z,0.00
2022-12-13T02:25:03.652Z,-0.10
2022-12-13T02:26:45.781Z,-0.10
2022-12-13T02:28:00.852Z,-0.10
2022-12-13T02:29:41.683Z,-0.10
2022-12-13T02:30:51.162Z,-0.10
2022-12-13T02:32:01.720Z,-0.10
2022-12-13T02:33:09.750Z,-0.10
2022-12-13T02:34:24.295Z,-0.10
2022-12-13T02:35:49.347Z,-0.10
2022-12-13T02:36:57.957Z,-0.10
2022-12-13T02:38:26.590Z,-0.10
2022-12-13T02:39:34.427Z,-0.10
2022-12-13T02:40:45.747Z,-0.10
2022-12-13T02:41:53.731Z,-0.10
2022-12-13T02:43:09.628Z,-0.10
2022-12-13T02:44:28.729Z,-0.10
2022-12-13T02:45:36.155Z,-0.10
2022-12-13T02:46:43.438Z,-0.10
2022-12-13T02:47:46.770Z,-0.10
2022-12-13T02:48:52.755Z,-0.10
2022-12-13T02:49:59.587Z,-0.10
2022-12-13T02:51:05.167Z,-0.10
2022-12-13T02:52:09.942Z,-0.10
2022-12-13T02:53:16.325Z,-0.10
2022-12-13T02:54:18.760Z,-0.10
2022-12-13T02:55:27.776Z,-0.10
2022-12-13T02:56:32.262Z,-0.10
2022-12-13T02:57:40.490Z,-0.10
2022-12-13T02:58:49.019Z,-0.10
2022-12-13T02:59:52.547Z,-0.10
2022-12-13T03:01:40.842Z,-0.10
2022-12-13T03:03:14.194Z,-0.10
2022-12-13T03:04:36.064Z,-0.10
2022-12-13T03:06:11.136Z,-0.10
2022-12-13T03:07:26.329Z,-0.10
2022-12-13T03:08:42.240Z,-0.10
2022-12-13T03:10:09.364Z,-0.10
2022-12-13T03:11:17.312Z,-0.10
2022-12-13T03:13:08.992Z,-0.10
2022-12-13T03:14:13.341Z,-0.10
2022-12-13T03:15:34.509Z,-0.10
2022-12-13T03:16:46.269Z,-0.10
2022-12-13T03:18:03.004Z,-0.10
2022-12-13T03:19:07.832Z,-0.10
2022-12-13T03:20:23.295Z,-0.10
2022-12-13T03:21:26.747Z,-0.10
2022-12-13T03:22:29.126Z,-0.10
2022-12-13T03:23:32.169Z,-0.10
2022-12-13T03:24:34.430Z,-0.10
2022-12-13T03:25:36.695Z,-0.10
2022-12-13T03:26:40.471Z,-0.10
2022-12-13T03:27:42.767Z,-0.10
2022-12-13T03:28:45.264Z,-0.10
2022-12-13T03:29:47.535Z,-0.10
2022-12-13T03:30:49.815Z,-0.10
2022-12-13T03:31:53.249Z,-0.10
2022-12-13T03:32:55.500Z,-0.10
2022-12-13T03:33:57.835Z,-0.10
2022-12-13T03:35:00.583Z,-0.10
2022-12-13T03:36:03.828Z,-0.10
2022-12-13T03:37:06.194Z,-0.10
2022-12-13T03:38:08.766Z,-0.10
2022-12-13T03:39:11.239Z,-0.10
2022-12-13T03:40:13.642Z,-0.10
2022-12-13T03:41:18.491Z,-0.10
2022-12-13T03:42:20.761Z,-0.10
2022-12-13T03:43:23.673Z,-0.10
2022-12-13T03:44:31.666Z,-0.10
2022-12-13T03:45:34.072Z,-0.10
2022-12-13T03:46:36.429Z,-0.10
2022-12-13T03:47:38.676Z,-0.10
2022-12-13T03:48:40.967Z,-0.10
2022-12-13T03:49:43.665Z,-0.10
2022-12-13T03:50:45.905Z,-0.10
2022-12-13T03:51:48.219Z,-0.20
2022-12-13T03:52:59.120Z,-0.20
2022-12-13T03:54:01.382Z,-0.20
2022-12-13T03:55:04.171Z,-0.20
2022-12-13T03:56:07.269Z,-0.20
2022-12-13T03:57:09.532Z,-0.20
2022-12-13T03:58:11.872Z,-0.20
2022-12-13T03:59:15.268Z,-0.20
2022-12-13T04:00:17.712Z,-0.20
2022-12-13T04:01:20.161Z,-0.10
2022-12-13T04:02:30.712Z,-0.20
2022-12-13T04:03:34.515Z,-0.20
2022-12-13T04:04:36.814Z,-0.20
2022-12-13T04:05:39.037Z,-0.20
2022-12-13T04:06:41.323Z,-0.20
2022-12-13T04:07:48.180Z,-0.20
2022-12-13T04:08:52.352Z,-0.20
2022-12-13T04:09:54.691Z,-0.20
2022-12-13T04:10:56.949Z,-0.20
2022-12-13T04:12:18.089Z,-0.20
2022-12-13T04:13:35.369Z,-0.20
2022-12-13T04:14:37.710Z,-0.20
2022-12-13T04:15:40.471Z,-0.20
2022-12-13T04:16:42.711Z,-0.20
2022-12-13T04:17:44.985Z,-0.20
2022-12-13T04:18:53.563Z,-0.20
2022-12-13T04:19:55.779Z,-0.20
2022-12-13T04:20:58.140Z,-0.20
2022-12-13T04:22:00.430Z,-0.20
2022-12-13T04:23:10.171Z,-0.20
2022-12-13T04:24:12.907Z,-0.20
2022-12-13T04:25:15.547Z,-0.20
2022-12-13T04:26:18.136Z,-0.20
2022-12-13T04:27:20.349Z,-0.20
2022-12-13T04:28:23.303Z,-0.20
2022-12-13T04:29:25.733Z,-0.20
2022-12-13T04:30:36.722Z,-0.20
2022-12-13T04:31:39.180Z,-0.20
2022-12-13T04:32:41.528Z,-0.20
2022-12-13T04:33:43.787Z,-0.20
2022-12-13T04:34:46.051Z,-0.20
2022-12-13T04:35:48.649Z,-0.20
2022-12-13T04:36:50.928Z,-0.20
2022-12-13T04:37:53.443Z,-0.20
2022-12-13T04:38:55.736Z,-0.20
2022-12-13T04:40:03.505Z,-0.20
2022-12-13T04:41:08.222Z,-0.20
2022-12-13T04:42:10.672Z,-0.20
2022-12-13T04:43:12.972Z,-0.20
2022-12-13T04:44:28.169Z,-0.20
2022-12-13T04:45:32.194Z,-0.20
2022-12-13T04:46:34.719Z,-0.20
2022-12-13T04:47:37.021Z,-0.20
2022-12-13T04:48:39.286Z,-0.20
2022-12-13T04:49:41.541Z,-0.20
2022-12-13T04:50:43.858Z,-0.20
2022-12-13T04:51:47.855Z,-0.20
2022-12-13T04:52:50.225Z,-0.20
2022-12-13T04:53:52.694Z,-0.20
2022-12-13T04:54:55.686Z,-0.20
2022-12-13T04:55:59.094Z,-0.20
2022-12-13T04:57:01.343Z,-0.20
2022-12-13T04:58:04.063Z,-0.20
2022-12-13T04:59:06.282Z,-0.20
2022-12-13T05:00:11.653Z,-0.20
2022-12-13T05:01:14.066Z,-0.20
2022-12-13T05:02:23.700Z,-0.20
2022-12-13T05:03:26.516Z,-0.20
2022-12-13T05:04:32.682Z,-0.20
2022-12-13T05:05:39.704Z,-0.20
2022-12-13T05:06:41.996Z,-0.20
2022-12-13T05:07:44.211Z,-0.20
2022-12-13T05:08:46.425Z,-0.20
2022-12-13T05:09:48.998Z,-0.20
2022-12-13T05:10:51.242Z,-0.20
2022-12-13T05:11:53.506Z,-0.20
2022-12-13T05:13:04.937Z,-0.20
2022-12-13T05:14:07.207Z,-0.20
2022-12-13T05:15:09.706Z,-0.20
2022-12-13T05:16:12.632Z,-0.20
2022-12-13T05:17:14.903Z,-0.20
2022-12-13T05:18:17.099Z,-0.20
2022-12-13T05:19:19.432Z,-0.20
2022-12-13T05:20:21.787Z,-0.20
2022-12-13T05:21:24.072Z,-0.20
2022-12-13T05:22:26.998Z,-0.20
2022-12-13T05:23:29.446Z,-0.20
2022-12-13T05:24:32.097Z,-0.20
2022-12-13T05:25:36.902Z,-0.20
2022-12-13T05:26:40.148Z,-0.20
2022-12-13T05:27:42.425Z,-0.20
2022-12-13T05:28:44.660Z,-0.20
2022-12-13T05:29:47.024Z,-0.20
2022-12-13T05:30:49.224Z,-0.20
2022-12-13T05:31:51.536Z,-0.20
2022-12-13T05:32:54.645Z,-0.20
2022-12-13T05:34:01.191Z,-0.20
2022-12-13T05:35:04.057Z,-0.20
2022-12-13T05:36:06.929Z,-0.20
2022-12-13T05:37:09.602Z,-0.20
2022-12-13T05:38:11.980Z,-0.20
2022-12-13T05:39:27.807Z,-0.20
2022-12-13T05:40:32.595Z,-0.20
2022-12-13T05:41:36.928Z,-0.20
2022-12-13T05:42:39.460Z,-0.20
2022-12-13T05:43:43.357Z,-0.20
2022-12-13T05:44:46.005Z,-0.20
2022-12-13T05:45:48.250Z,-0.20
2022-12-13T05:46:50.568Z,-0.20
2022-12-13T05:47:52.857Z,-0.20
2022-12-13T05:48:55.114Z,-0.20
2022-12-13T05:49:57.412Z,-0.20
2022-12-13T05:51:10.534Z,-0.20
2022-12-13T05:52:21.482Z,-0.20
2022-12-13T05:53:32.598Z,-0.20
2022-12-13T05:54:34.796Z,-0.20
2022-12-13T05:55:38.436Z,-0.20
2022-12-13T05:56:40.703Z,-0.20
2022-12-13T05:57:50.127Z,-0.20
2022-12-13T05:58:54.259Z,-0.20
2022-12-13T05:59:57.604Z,-0.20
2022-12-13T06:01:12.019Z,-0.20
2022-12-13T06:02:19.766Z,-0.20
2022-12-13T06:03:23.816Z,-0.30
2022-12-13T06:04:26.106Z,-0.20
2022-12-13T06:05:29.713Z,-0.20
2022-12-13T06:06:32.125Z,-0.20
2022-12-13T06:07:34.363Z,-0.20
2022-12-13T06:08:37.044Z,-0.20
2022-12-13T06:09:39.983Z,-0.20
2022-12-13T06:10:42.608Z,-0.20
2022-12-13T06:11:44.875Z,-0.20
2022-12-13T06:12:47.226Z,-0.20
2022-12-13T06:13:52.723Z,-0.20
2022-12-13T06:15:04.832Z,-0.20
2022-12-13T06:16:24.976Z,-0.20
2022-12-13T06:17:33.984Z,-0.20
2022-12-13T06:18:36.454Z,-0.20
2022-12-13T06:19:38.696Z,-0.20
2022-12-13T06:20:41.230Z,-0.20
2022-12-13T06:21:46.238Z,-0.20
2022-12-13T06:22:48.828Z,-0.20
2022-12-13T06:23:51.131Z,-0.20
2022-12-13T06:24:53.464Z,-0.20
2022-12-13T06:25:56.740Z,-0.20
2022-12-13T06:27:00.182Z,-0.20
2022-12-13T06:28:02.499Z,-0.20
2022-12-13T06:29:04.727Z,-0.20
2022-12-13T06:30:07.502Z,-0.20
2022-12-13T06:31:10.383Z,-0.20
2022-12-13T06:32:12.708Z,-0.20
2022-12-13T06:33:14.978Z,-0.20
2022-12-13T06:34:26.236Z,-0.20
2022-12-13T06:35:31.476Z,-0.20
2022-12-13T06:36:35.438Z,-0.20
2022-12-13T06:37:38.986Z,-0.20
2022-12-13T06:38:43.259Z,-0.20
2022-12-13T06:39:46.958Z,-0.20
2022-12-13T06:40:49.215Z,-0.20
2022-12-13T06:41:51.722Z,-0.20
2022-12-13T06:42:54.145Z,-0.20
2022-12-13T06:43:56.448Z,-0.20
2022-12-13T06:44:58.811Z,-0.20
2022-12-13T06:46:03.917Z,-0.20
2022-12-13T06:47:11.568Z,-0.20
2022-12-13T06:48:20.071Z,-0.20
2022-12-13T06:49:22.600Z,-0.20
2022-12-13T06:50:25.053Z,-0.20
2022-12-13T06:51:32.554Z,-0.20
2022-12-13T06:52:36.687Z,-0.20
2022-12-13T06:53:40.540Z,-0.20
2022-12-13T06:54:43.664Z,-0.20
2022-12-13T06:55:46.267Z,-0.20
2022-12-13T06:56:48.513Z,-0.20
2022-12-13T06:57:51.071Z,-0.20
2022-12-13T06:58:53.328Z,-0.20
2022-12-13T07:00:05.211Z,-0.20
2022-12-13T07:01:24.548Z,-0.20
2022-12-13T07:02:27.347Z,-0.20
2022-12-13T07:03:30.239Z,-0.10
2022-12-13T07:04:33.110Z,-0.20
2022-12-13T07:05:37.369Z,-0.20
2022-12-13T07:06:45.708Z,-0.20
2022-12-13T07:07:48.113Z,-0.20
2022-12-13T07:08:57.822Z,-0.20
2022-12-13T07:10:00.039Z,-0.10
2022-12-13T07:11:02.942Z,-0.20
2022-12-13T07:12:05.622Z,-0.20
2022-12-13T07:13:07.864Z,-0.20
2022-12-13T07:14:10.250Z,-0.20
2022-12-13T07:15:12.529Z,-0.10
2022-12-13T07:16:15.239Z,-0.20
2022-12-13T07:17:32.295Z,-0.20
2022-12-13T07:18:36.869Z,-0.10
2022-12-13T07:19:39.748Z,-0.10
2022-12-13T07:20:43.352Z,-0.10
2022-12-13T07:21:45.672Z,-0.10
2022-12-13T07:22:58.355Z,-0.10
2022-12-13T07:24:02.232Z,-0.10
2022-12-13T07:25:05.652Z,-0.10
2022-12-13T07:26:08.745Z,-0.10
2022-12-13T07:27:11.026Z,-0.10
2022-12-13T07:28:13.480Z,-0.10
2022-12-13T07:29:22.158Z,-0.10
2022-12-13T07:30:25.193Z,-0.10
2022-12-13T07:31:27.891Z,-0.10
2022-12-13T07:32:30.636Z,-0.10
2022-12-13T07:33:33.829Z,0.00
2022-12-13T07:34:36.047Z,0.00
2022-12-13T07:35:38.866Z,0.00
2022-12-13T07:36:41.133Z,-0.10
2022-12-13T07:37:43.675Z,-0.10
2022-12-13T07:38:57.310Z,0.00
2022-12-13T07:40:04.002Z,0.00
2022-12-13T07:41:07.417Z,0.00
2022-12-13T07:42:09.698Z,0.00
2022-12-13T07:43:12.957Z,0.00
2022-12-13T07:44:15.311Z,0.00
2022-12-13T07:45:17.728Z,0.00
2022-12-13T07:46:23.574Z,0.10
2022-12-13T07:47:35.534Z,0.10
2022-12-13T07:48:38.403Z,0.10
2022-12-13T07:49:41.009Z,0.10
2022-12-13T07:50:43.379Z,0.20
2022-12-13T07:51:45.602Z,0.20
2022-12-13T07:52:49.053Z,0.20
2022-12-13T07:53:51.267Z,0.20
2022-12-13T07:54:53.839Z,0.20
2022-12-13T07:55:56.295Z,0.20
2022-12-13T07:57:02.783Z,0.20
2022-12-13T07:58:14.471Z,0.20
2022-12-13T07:59:17.008Z,0.20
2022-12-13T08:00:33.162Z,0.20
2022-12-13T08:01:35.638Z,0.20
2022-12-13T08:02:39.568Z,0.20
2022-12-13T08:03:41.921Z,0.20
2022-12-13T08:04:44.387Z,0.20
2022-12-13T08:05:46.776Z,0.20
2022-12-13T08:06:49.053Z,0.20
2022-12-13T08:07:51.329Z,0.20
2022-12-13T08:08:57.770Z,0.20
2022-12-13T08:10:00.075Z,0.30
2022-12-13T08:11:07.713Z,0.30
2022-12-13T08:12:09.949Z,0.30
2022-12-13T08:13:12.190Z,0.30
2022-12-13T08:14:14.403Z,0.40
2022-12-13T08:15:17.419Z,0.40
2022-12-13T08:16:27.802Z,0.40
2022-12-13T08:17:31.491Z,0.40
2022-12-13T08:18:34.464Z,0.40
2022-12-13T08:19:36.800Z,0.40
2022-12-13T08:20:39.066Z,0.50
2022-12-13T08:22:01.663Z,0.50
2022-12-13T08:23:04.503Z,0.50
2022-12-13T08:24:09.956Z,0.50
2022-12-13T08:25:18.089Z,0.50
2022-12-13T08:26:20.298Z,0.50
2022-12-13T08:27:22.854Z,0.50
2022-12-13T08:28:26.179Z,0.50
2022-12-13T08:29:33.925Z,0.60
2022-12-13T08:30:37.443Z,0.50
2022-12-13T08:31:39.777Z,0.60
2022-12-13T08:32:42.115Z,0.60
2022-12-13T08:33:46.971Z,0.50
2022-12-13T08:34:49.756Z,0.50
2022-12-13T08:35:51.980Z,0.50
2022-12-13T08:37:02.516Z,0.50
2022-12-13T08:38:05.901Z,0.50
2022-12-13T08:39:09.425Z,0.50
2022-12-13T08:40:12.213Z,0.50
2022-12-13T08:41:14.482Z,0.50
2022-12-13T08:42:20.104Z,0.50
2022-12-13T08:43:24.855Z,0.60
2022-12-13T08:44:27.618Z,0.60
2022-12-13T08:45:31.715Z,0.60
2022-12-13T08:46:34.102Z,0.60
2022-12-13T08:47:41.579Z,0.60
2022-12-13T08:48:44.856Z,0.60
2022-12-13T08:49:47.891Z,0.60
2022-12-13T08:50:50.418Z,0.60
2022-12-13T08:51:52.677Z,0.70
2022-12-13T08:52:55.127Z,0.60
2022-12-13T08:54:11.322Z,0.70
2022-12-13T08:55:15.369Z,0.70
2022-12-13T08:56:18.902Z,0.60
2022-12-13T08:57:21.321Z,0.70
2022-12-13T08:58:23.534Z,0.70
2022-12-13T08:59:26.735Z,0.70
2022-12-13T09:00:29.209Z,0.70
2022-12-13T09:01:38.459Z,0.70
2022-12-13T09:02:41.206Z,0.70
2022-12-13T09:03:43.467Z,0.70
2022-12-13T09:04:45.839Z,0.70
2022-12-13T09:05:48.103Z,0.70
2022-12-13T09:06:50.320Z,0.70
2022-12-13T09:07:56.604Z,0.70
2022-12-13T09:08:59.043Z,0.80
2022-12-13T09:10:07.241Z,0.80
2022-12-13T09:11:34.490Z,0.80
2022-12-13T09:12:42.238Z,0.90
2022-12-13T09:13:45.445Z,0.90
2022-12-13T09:14:48.006Z,0.90
2022-12-13T09:15:50.272Z,0.90
2022-12-13T09:16:52.583Z,1.00
2022-12-13T09:17:55.389Z,1.00
2022-12-13T09:19:24.925Z,1.00
2022-12-13T09:20:29.447Z,1.00
2022-12-13T09:21:32.407Z,1.00
2022-12-13T09:22:35.582Z,1.00
2022-12-13T09:23:38.008Z,1.00
2022-12-13T09:24:49.957Z,1.10
2022-12-13T09:26:05.464Z,1.10
2022-12-13T09:27:10.393Z,1.10
2022-12-13T09:28:31.014Z,1.10
2022-12-13T09:29:34.313Z,1.10
2022-12-13T09:30:38.418Z,1.10
2022-12-13T09:31:41.329Z,1.10
2022-12-13T09:32:49.696Z,1.20
2022-12-13T09:33:51.953Z,1.20
2022-12-13T09:34:54.680Z,1.20
2022-12-13T09:35:57.123Z,1.20
2022-12-13T09:37:01.420Z,1.20
2022-12-13T09:38:04.125Z,1.20
2022-12-13T09:39:06.474Z,1.20
2022-12-13T09:40:15.620Z,1.20
2022-12-13T09:41:30.663Z,1.20
2022-12-13T09:42:34.658Z,1.20
2022-12-13T09:43:43.433Z,1.20
2022-12-13T09:45:03.183Z,1.20
2022-12-13T09:46:13.477Z,1.20
2022-12-13T09:47:38.012Z,1.20
2022-12-13T09:48:53.151Z,1.20
2022-12-13T09:50:15.105Z,1.20
2022-12-13T09:51:29.940Z,1.20
2022-12-13T09:52:43.649Z,1.20
2022-12-13T09:53:50.208Z,1.20
2022-12-13T09:54:55.897Z,1.20
2022-12-13T09:56:10.235Z,1.30
2022-12-13T09:57:32.303Z,1.20
2022-12-13T09:58:37.340Z,1.30
2022-12-13T09:59:41.745Z,1.30
2022-12-13T10:00:45.955Z,1.40
2022-12-13T10:01:48.704Z,1.40
2022-12-13T10:02:53.912Z,1.40
2022-12-13T10:04:00.649Z,1.50
2022-12-13T10:05:39.219Z,1.50
2022-12-13T10:06:42.258Z,1.50
2022-12-13T10:07:45.055Z,1.50
2022-12-13T10:09:11.048Z,1.50
2022-12-13T10:10:14.837Z,1.50
2022-12-13T10:11:19.298Z,1.50
2022-12-13T10:12:21.543Z,1.50
2022-12-13T10:13:31.211Z,1.50
2022-12-13T10:14:40.405Z,1.50
2022-12-13T10:15:48.564Z,1.50
2022-12-13T10:16:54.539Z,1.50
2022-12-13T10:17:57.803Z,1.50
2022-12-13T10:19:29.452Z,1.60
2022-12-13T10:20:33.697Z,1.60
2022-12-13T10:21:40.103Z,1.70
2022-12-13T10:22:52.113Z,1.70
2022-12-13T10:24:31.364Z,1.70
2022-12-13T10:25:54.721Z,1.70
2022-12-13T10:27:18.140Z,1.70
2022-12-13T10:28:26.993Z,1.70
2022-12-13T10:29:29.371Z,1.70
2022-12-13T10:30:41.817Z,1.60
2022-12-13T10:31:50.599Z,1.70
2022-12-13T10:32:55.858Z,1.70
2022-12-13T10:33:58.554Z,1.70
2022-12-13T10:35:12.152Z,1.70
2022-12-13T10:36:29.862Z,1.70
2022-12-13T10:37:32.540Z,1.70
2022-12-13T10:38:40.969Z,1.70
2022-12-13T10:39:44.068Z,1.70
2022-12-13T10:40:49.002Z,1.70
2022-12-13T10:42:04.144Z,1.70
2022-12-13T10:43:14.393Z,1.70
2022-12-13T10:44:25.393Z,1.80
2022-12-13T10:45:27.779Z,1.80
2022-12-13T10:46:32.165Z,1.80
2022-12-13T10:47:44.360Z,1.70
2022-12-13T10:48:51.863Z,1.70
2022-12-13T10:49:58.820Z,1.80
2022-12-13T10:51:17.195Z,1.80
2022-12-13T10:52:31.341Z,1.80
2022-12-13T10:53:36.523Z,1.80
2022-12-13T10:54:48.448Z,1.80
2022-12-13T10:55:56.205Z,1.80
2022-12-13T10:57:05.269Z,1.70
2022-12-13T10:58:10.342Z,1.80
2022-12-13T10:59:26.620Z,1.70
2022-12-13T11:00:45.130Z,1.70
2022-12-13T11:01:47.583Z,1.70
2022-12-13T11:02:55.766Z,1.70
2022-12-13T11:04:04.708Z,1.70
2022-12-13T11:05:28.104Z,1.70
2022-12-13T11:06:44.624Z,1.70
2022-12-13T11:07:47.087Z,1.70
2022-12-13T11:08:49.609Z,1.70
2022-12-13T11:09:52.589Z,1.70
2022-12-13T11:11:01.454Z,1.70
2022-12-13T11:12:11.871Z,1.70
2022-12-13T11:13:29.298Z,1.70
2022-12-13T11:14:40.408Z,1.70
2022-12-13T11:15:45.917Z,1.80
2022-12-13T11:16:54.436Z,1.80
2022-12-13T11:18:02.344Z,1.90
2022-12-13T11:19:08.628Z,1.90
2022-12-13T11:20:24.404Z,1.90
2022-12-13T11:21:29.488Z,2.00
2022-12-13T11:22:36.140Z,2.00
2022-12-13T11:23:43.289Z,2.00
2022-12-13T11:24:52.665Z,2.00
2022-12-13T11:25:58.224Z,2.00
2022-12-13T11:27:23.044Z,2.10
2022-12-13T11:28:27.644Z,2.10
2022-12-13T11:29:33.178Z,2.10
2022-12-13T11:31:02.260Z,2.10
2022-12-13T11:32:12.170Z,2.20
2022-12-13T11:33:25.064Z,2.20
2022-12-13T11:35:02.115Z,2.30
2022-12-13T11:36:36.102Z,2.30
2022-12-13T11:38:07.188Z,2.40
2022-12-13T11:39:29.017Z,2.50
2022-12-13T11:40:37.943Z,2.50
2022-12-13T11:42:10.780Z,2.50
2022-12-13T11:43:25.696Z,2.60
2022-12-13T11:44:48.243Z,2.60
2022-12-13T11:45:56.571Z,2.60
2022-12-13T11:47:02.052Z,2.60
2022-12-13T11:48:09.989Z,2.60
2022-12-13T11:49:25.788Z,2.60
2022-12-13T11:50:40.684Z,2.60
2022-12-13T11:52:06.243Z,2.60
2022-12-13T11:53:14.444Z,2.60
2022-12-13T11:54:46.735Z,2.60
2022-12-13T11:56:25.616Z,2.50
2022-12-13T11:57:50.228Z,2.50
2022-12-13T11:59:06.616Z,2.50
2022-12-13T12:00:34.413Z,2.50
2022-12-13T12:01:41.542Z,2.50
2022-12-13T12:02:50.394Z,2.50
2022-12-13T12:03:59.188Z,2.50
2022-12-13T12:05:08.439Z,2.50
2022-12-13T12:06:26.074Z,2.50
2022-12-13T12:08:05.158Z,2.50
2022-12-13T12:09:12.489Z,2.40
2022-12-13T12:10:14.822Z,2.40
2022-12-13T12:11:57.395Z,2.30
2022-12-13T12:13:27.135Z,2.40
2022-12-13T12:14:49.429Z,2.30
2022-12-13T12:16:00.100Z,2.30
2022-12-13T12:17:04.157Z,2.20
2022-12-13T12:18:14.533Z,2.20
2022-12-13T12:19:21.943Z,2.20
2022-12-13T12:21:03.615Z,2.20
2022-12-13T12:22:27.141Z,2.20
2022-12-13T12:23:48.386Z,2.10
2022-12-13T12:25:12.875Z,2.10
2022-12-13T12:26:18.543Z,2.10
2022-12-13T12:27:24.874Z,2.10
2022-12-13T12:29:01.407Z,2.10
2022-12-13T12:30:27.870Z,2.10
2022-12-13T12:31:51.318Z,2.10
2022-12-13T12:33:08.322Z,2.10
2022-12-13T12:34:28.160Z,2.10
2022-12-13T12:35:53.255Z,2.10
2022-12-13T12:37:10.423Z,2.10
2022-12-13T12:38:55.117Z,2.10
2022-12-13T12:40:03.457Z,2.10
2022-12-13T12:41:20.898Z,2.10
2022-12-13T12:43:15.288Z,2.10
2022-12-13T12:44:39.803Z,2.10
2022-12-13T12:45:57.261Z,2.10
2022-12-13T12:48:07.308Z,2.10
2022-12-13T12:49:16.883Z,2.10
2022-12-13T12:50:31.147Z,2.10
2022-12-13T12:51:55.067Z,2.10
2022-12-13T12:53:11.502Z,2.00
2022-12-13T12:54:50.662Z,2.00
2022-12-13T12:56:30.003Z,2.00
2022-12-13T12:57:46.678Z,1.90
2022-12-13T12:59:14.584Z,1.90
2022-12-13T13:00:20.077Z,1.80
2022-12-13T13:01:25.497Z,1.70
2022-12-13T13:02:40.181Z,1.70
2022-12-13T13:03:44.091Z,1.70
2022-12-13T13:04:52.946Z,1.60
2022-12-13T13:06:04.740Z,1.60
2022-12-13T13:07:23.214Z,1.50
2022-12-13T13:08:37.167Z,1.50
2022-12-13T13:09:40.434Z,1.50
2022-12-13T13:10:50.100Z,1.50
2022-12-13T13:11:57.678Z,1.40
2022-12-13T13:13:11.451Z,1.40
2022-12-13T13:14:34.440Z,1.40
2022-12-13T13:15:39.541Z,1.30
2022-12-13T13:16:42.340Z,1.30
2022-12-13T13:17:46.090Z,1.30
2022-12-13T13:18:50.518Z,1.30
2022-12-13T13:20:15.318Z,1.30
2022-12-13T13:21:23.117Z,1.20
2022-12-13T13:22:35.043Z,1.20
2022-12-13T13:23:47.285Z,1.20
2022-12-13T13:25:04.695Z,1.10
2022-12-13T13:26:30.348Z,1.10
2022-12-13T13:27:41.645Z,1.10
2022-12-13T13:28:43.862Z,1.10
2022-12-13T13:29:46.448Z,1.10
2022-12-13T13:31:02.809Z,1.00
2022-12-13T13:32:28.534Z,1.00
2022-12-13T13:33:44.150Z,0.90
2022-12-13T13:34:49.222Z,0.90
2022-12-13T13:35:53.752Z,0.90
2022-12-13T13:36:57.736Z,0.90
2022-12-13T13:38:05.005Z,0.90
2022-12-13T13:39:19.774Z,0.90
2022-12-13T13:40:30.041Z,0.90
2022-12-13T13:42:00.277Z,0.80
2022-12-13T13:43:05.360Z,0.80
2022-12-13T13:44:44.787Z,0.80
2022-12-13T13:45:50.105Z,0.80
2022-12-13T13:47:39.084Z,0.70
2022-12-13T13:49:00.159Z,0.70
2022-12-13T13:50:08.020Z,0.70
2022-12-13T13:51:31.724Z,0.60
2022-12-13T13:52:54.720Z,0.60
2022-12-13T13:54:15.988Z,0.60
2022-12-13T13:55:24.323Z,0.60
2022-12-13T13:56:38.134Z,0.50
2022-12-13T13:58:10.242Z,0.50
2022-12-13T13:59:24.714Z,0.50
2022-12-13T14:00:57.998Z,0.50
2022-12-13T14:02:34.317Z,0.50
2022-12-13T14:04:07.805Z,0.40
2022-12-13T14:06:00.433Z,0.40
2022-12-13T14:07:39.066Z,0.40
2022-12-13T14:08:59.686Z,0.40
2022-12-13T14:10:28.701Z,0.30
2022-12-13T14:11:54.550Z,0.30
2022-12-13T14:13:17.830Z,0.30
2022-12-13T14:14:21.598Z,0.30
2022-12-13T14:15:52.255Z,0.30
2022-12-13T14:17:32.721Z,0.30
2022-12-13T14:19:16.010Z,0.20
2022-12-13T14:20:38.232Z,0.20
2022-12-13T14:22:15.669Z,0.10
2022-12-13T14:23:25.392Z,0.10
2022-12-13T14:24:39.742Z,0.10
2022-12-13T14:26:06.179Z,0.10
2022-12-13T14:27:27.026Z,0.00
2022-12-13T14:28:40.348Z,0.00
2022-12-13T14:29:48.025Z,0.00
2022-12-13T14:30:57.476Z,0.00
2022-12-13T14:32:00.368Z,0.00
2022-12-13T14:33:02.818Z,0.00
2022-12-13T14:34:07.715Z,0.00
2022-12-13T14:35:30.083Z,-0.10
2022-12-13T14:36:35.558Z,-0.10
2022-12-13T14:37:37.903Z,-0.10
2022-12-13T14:38:40.227Z,-0.20
2022-12-13T14:39:45.190Z,-0.20
2022-12-13T14:40:50.074Z,-0.20
2022-12-13T14:41:57.650Z,-0.20
2022-12-13T14:43:01.152Z,-0.20
2022-12-13T14:44:15.999Z,-0.30
2022-12-13T14:45:26.284Z,-0.30
2022-12-13T14:46:29.051Z,-0.30
2022-12-13T14:47:31.814Z,-0.40
2022-12-13T14:48:45.562Z,-0.40
2022-12-13T14:49:54.107Z,-0.40
2022-12-13T14:50:56.920Z,-0.50
2022-12-13T14:52:09.406Z,-0.50
2022-12-13T14:53:30.684Z,-0.50
2022-12-13T14:54:45.218Z,-0.50
2022-12-13T14:56:09.446Z,-0.50
2022-12-13T14:57:27.267Z,-0.60
2022-12-13T14:58:29.543Z,-0.60
2022-12-13T14:59:33.344Z,-0.70
2022-12-13T15:00:40.288Z,-0.70
2022-12-13T15:01:44.555Z,-0.70
2022-12-13T15:02:52.388Z,-0.80